Austin, TX (78725)

6:39 PM CST on January 27, 2015 (GMT -0600)
Berdoll Farms | Change Station
CLOSE
Current Station
Personal Weather Station
Location: Texas, TX
Elevation: 489 ft
Nearby Weather Stations

Elev 489 ft 30.17 °N, 97.61 °W | Updated 13 minutes ago

Clear
Clear
68.7 °F
Feels Like 68.7 °F
N
0.0
Wind Variable Wind from NE

Today
High -- | Low -- °F
--% Chance of Precip.
Yesterday
High -- | Low -- °F
Precip. -- in
7:23 AM 6:02 PM
First Quarter, 59% visible
Pressure 30.10 in
Visibility 10.0 miles
Clouds Few 300 ft
Few 20000 ft
Dew Point 48 °F
Humidity 47%
Rainfall 0.00 in
Snow Depth Not available.
UV 0 out of 12
Pollen 6.40 out of 12
Air Quality Not available.
Flu Activity Not available.
METAR KAUS 272353Z 09004KT 10SM FEW003 FEW200 22/07 A3011 RMK AO2 SLP193 FU FEW003 FU E-SE T02220067 10267 20222 55003

More Conditions Fewer Conditions

Pressure 30.10 in
Visibility 10.0 miles
Clouds Few 300 ft
Few 20000 ft
Dew Point 48 °F
Humidity 47%
Rainfall 0.00 in
Snow Depth Not available.
UV 0 out of 12
Pollen 6.40 out of 12
Air Quality Not available.
Flu Activity Not available.
METAR KAUS 272353Z 09004KT 10SM FEW003 FEW200 22/07 A3011 RMK AO2 SLP193 FU FEW003 FU E-SE T02220067 10267 20222 55003

More Conditions Fewer Conditions

10-Day Weather Forecast

Almanac

Astronomy

Jan. 27, 2015 Rise Set
Actual Time
Civil Twilight
Nautical Twilight
Astronomical Twilight
Moon
Length of Visible Light
Length of Day
Tomorrow will be .
, % of the Moon is Illuminated

Today's Extremes

State Highs State Lows

Community

WunderPhotos

Upload Photos

1,791,000 photos uploaded!

WunderBlogs® & News

Nearby

Air Quality

  Air Quality AQ Index Pollutant
Not available.

Snow Depth

Station Depth Elevation

Earthquake Activity

City Distance Mag. Time & Date
Minimum magnitude displayed is 2.5.

Coastal Water Temperatures

Place Temperature

Nearby Weather Stations